• Join FlightAware (Why Join?)
  • Login
  • US Flag 
08:09AM EST


 

Airport Tracker/Info


-or-


 

Live Flight TrackerFlight Track Log ✈ AWI3778 ✈ 14-Aug-2013 ✈ KBTV - KPHL

Flight Track Log - Related Links

Times and Time Zones

All times are in EDT time to prevent confusion due to time zone crossing. See the AWI3778 flight status page for this flight to view local times or setup timezone preferences in your user account.

Time Position Orientation Groundspeed Altitude Reporting Facility
EDT Latitude Longitude Course Direction KTS MPH feet Rate Location/Type
01:50PM 44.4081 -73.3089 204° Southwest 242 278 8,200  Level Boston Center
01:51PM 44.3389 -73.3661 211° Southwest 269 310 10,900 2,280 Climbing Boston Center
01:52PM 44.2656 -73.4200 208° Southwest 293 337 12,900 1,980 Climbing Boston Center
01:53PM 44.1878 -73.4794 209° Southwest 310 357 15,000 1,980 Climbing Boston Center
01:54PM 42.6279 -74.0276 236° Southwest  Level FlightAware Approximate
01:54PM 44.1081 -73.5417 209° Southwest 326 375 16,900  Level Boston Center
01:55PM 44.0408 -73.5925 209° Southwest 333 383 18,700 1,800 Climbing Boston Center
01:56PM 43.9486 -73.6628 209° Southwest 338 389 20,500 1,620 Climbing Boston Center
01:57PM 43.8625 -73.7272 208° Southwest 345 397 22,000 1,380 Climbing Boston Center
01:58PM 43.7742 -73.7914 208° Southwest 357 411 23,300 900 Climbing Boston Center
01:59PM 43.6836 -73.8583 208° Southwest 362 417 24,000 300 Climbing Boston Center
02:00PM 43.5722 -73.9444 209° Southwest 372 428 24,000  Level Boston Center
02:01PM 43.4836 -74.0111 209° Southwest 372 428 24,000  Level Boston Center
02:02PM 43.3933 -74.0744 207° Southwest 372 428 24,000  Level Boston Center
02:03PM 43.2878 -74.1544 209° Southwest 367 422 24,000  Level Boston Center
02:04PM 43.2014 -74.2203 209° Southwest 367 422 24,000  Level Boston Center
02:05PM 43.1317 -74.2722 209° Southwest 361 415 24,000  Level Boston Center
02:06PM 43.0306 -74.3458 208° Southwest 356 410 24,000  Level Boston Center
02:07PM 42.9461 -74.4058 207° Southwest 356 410 24,000  Level Boston Center
02:08PM 42.8553 -74.4736 209° Southwest 356 410 24,000  Level Boston Center
02:09PM 42.7708 -74.5331 207° Southwest 356 410 24,000  Level Boston Center
02:10PM 42.6842 -74.5981 209° Southwest 356 410 24,000  Level Boston Center
02:11PM 42.5956 -74.6597 207° Southwest 356 410 24,000  Level Boston Center
02:12PM 42.5086 -74.7242 209° Southwest 356 410 24,000  Level Boston Center
02:13PM 42.4200 -74.7886 208° Southwest 356 410 24,000 -180 Level Boston Center
02:14PM 42.3311 -74.8497 207° Southwest 356 410 23,700 -900 Descending Boston Center
02:17PM 42.1375 -74.9939 209° Southwest 353 406 21,200 -1,140 Descending New York Center
02:18PM 42.0542 -75.0611 211° Southwest 363 418 20,100 -1,140 Descending New York Center
02:19PM 41.9681 -75.1336 212° Southwest 363 418 19,000 -600 Descending New York Center
02:20PM 41.8953 -75.1928 211° Southwest 356 410 19,000  Level New York Center
02:21PM 41.8136 -75.2597 211° Southwest 351 404 19,000 -300 Level New York Center
02:22PM 41.7233 -75.3314 211° Southwest 351 404 18,500 -1,200 Descending New York Center
02:23PM 41.6439 -75.3956 211° Southwest 346 398 16,600 -1,980 Descending New York Center
02:24PM 41.5664 -75.4594 212° Southwest 346 398 14,700 -1,920 Descending New York Center
02:25PM 41.4953 -75.5153 210° Southwest 340 391 12,900 -1,380 Descending New York Center
02:26PM 41.4181 -75.5764 211° Southwest 335 386 12,000 -480 Descending New York Center
02:27PM 41.3342 -75.6394 209° Southwest 328 377 12,000  Level New York Center
02:28PM 41.2531 -75.6861 203° Southwest 316 364 12,000  Level New York Center
02:29PM 41.1633 -75.6878 181° South 314 361 12,000  Level New York Center
02:30PM 41.0719 -75.6867 179° South 332 382 12,000  Level New York Center
02:31PM 40.9800 -75.6881 181° South 332 382 12,000  Level New York Center
02:32PM 40.8989 -75.6878 180° South 332 382 12,000  Level New York Center
02:33PM 40.8053 -75.6867 179° South 332 382 12,000  Level New York Center
02:34PM 40.7031 -75.6847 179° South 332 382 12,000  Level New York Center
02:35PM 40.6114 -75.6836 179° South 332 382 12,000  Level New York Center
02:36PM 40.5478 -75.6136 140° Southeast 321 369 12,000 -780 Level New York Center
02:37PM 40.4914 -75.5111 126° Southeast 316 364 10,500 -1,020 Descending New York Center
02:38PM 40.4300 -75.4281 134° Southeast 310 357 10,000 -1,140 Descending New York Center
02:39PM 40.3569 -75.3794 153° Southeast 303 349 8,300 -1,860 Descending New York Center
02:40PM 40.2897 -75.3422 157° South 298 343 6,400 -1,200 Descending New York Center
02:41PM 40.2039 -75.2986 159° South 292 336 6,000 -600 Descending New York Center
02:42PM 40.1425 -75.2647 157° South 272 313 5,300 -780 Descending New York Center
02:43PM 40.0872 -75.2367 159° South 242 278 4,500 -660 Descending New York Center
02:44PM 40.0242 -75.2000 156° South 229 264 4,000 -300 Descending New York Center
02:45PM 39.9731 -75.1753 160° South 229 264 4,000  Level New York Center
02:46PM 39.9114 -75.1522 164° South 215 247 4,000 -300 Level New York Center
02:47PM 39.8500 -75.1333 167° South 197 227 3,500 -540 Descending Philadelphia TRACON
02:48PM 39.8000 -75.1167 166° South 203 234 3,000 -720 Descending Philadelphia TRACON
02:49PM 39.7667 -75.1500 218° Southwest 163 188 2,100 -600 Descending Philadelphia TRACON
02:50PM 39.7833 -75.1833 303° West 158 182 1,900 -600 Descending Philadelphia TRACON
02:51PM 39.8167 -75.2000 339° North 148 170 1,000 -840 Descending Philadelphia TRACON
02:52PM 39.8500 -75.2167 339° North 119 137 300 -720 Descending Philadelphia TRACON